createdAt,value
2023-04-18T00:01:44.826Z,1.00
2023-04-18T00:04:13.736Z,1.00
2023-04-18T00:06:40.851Z,1.00
2023-04-18T00:09:07.597Z,1.00
2023-04-18T00:11:34.912Z,1.00
2023-04-18T00:14:03.218Z,1.00
2023-04-18T00:16:30.118Z,1.00
2023-04-18T00:18:57.436Z,1.00
2023-04-18T00:21:25.530Z,1.00
2023-04-18T00:23:52.537Z,1.00
2023-04-18T00:26:19.306Z,1.00
2023-04-18T00:28:47.959Z,1.00
2023-04-18T00:31:14.790Z,1.00
2023-04-18T00:33:41.612Z,1.00
2023-04-18T00:36:08.715Z,1.00
2023-04-18T00:38:35.483Z,1.00
2023-04-18T00:41:02.694Z,1.00
2023-04-18T00:43:29.388Z,1.00
2023-04-18T00:45:57.071Z,1.00
2023-04-18T00:48:24.601Z,1.00
2023-04-18T00:50:51.300Z,1.00
2023-04-18T00:53:17.991Z,1.00
2023-04-18T00:55:44.710Z,1.00
2023-04-18T00:58:12.006Z,1.00
2023-04-18T01:00:38.712Z,1.00
2023-04-18T01:03:06.702Z,1.00
2023-04-18T01:05:34.918Z,1.00
2023-04-18T01:08:02.518Z,1.00
2023-04-18T01:10:30.463Z,1.00
2023-04-18T01:13:14.027Z,1.00
2023-04-18T01:15:45.850Z,1.00
2023-04-18T01:18:18.041Z,1.00
2023-04-18T01:20:48.000Z,1.00
2023-04-18T01:23:15.679Z,1.00
2023-04-18T01:25:43.353Z,1.00
2023-04-18T01:28:11.024Z,1.00
2023-04-18T01:30:37.746Z,1.00
2023-04-18T01:33:05.326Z,1.00
2023-04-18T01:35:33.144Z,1.00
2023-04-18T01:38:00.380Z,1.00
2023-04-18T01:40:27.765Z,1.00
2023-04-18T01:42:54.467Z,1.00
2023-04-18T01:45:22.272Z,1.00
2023-04-18T01:47:49.089Z,1.00
2023-04-18T01:50:16.004Z,1.00
2023-04-18T01:52:43.126Z,1.00
2023-04-18T01:55:10.147Z,1.00
2023-04-18T01:57:36.910Z,1.00
2023-04-18T02:00:08.036Z,1.00
2023-04-18T02:02:43.944Z,1.00
2023-04-18T02:05:10.843Z,1.00
2023-04-18T02:07:39.630Z,1.00
2023-04-18T02:10:06.923Z,1.00
2023-04-18T02:12:34.275Z,1.00
2023-04-18T02:15:01.118Z,1.00
2023-04-18T02:17:28.920Z,1.00
2023-04-18T02:19:55.770Z,1.00
2023-04-18T02:22:22.652Z,1.00
2023-04-18T02:24:49.300Z,1.00
2023-04-18T02:27:16.054Z,1.00
2023-04-18T02:29:42.750Z,1.00
2023-04-18T02:32:09.626Z,1.00
2023-04-18T02:34:37.138Z,1.00
2023-04-18T02:37:04.386Z,1.00
2023-04-18T02:39:32.338Z,1.00
2023-04-18T02:41:59.085Z,1.00
2023-04-18T02:44:25.782Z,1.00
2023-04-18T02:46:52.612Z,1.00
2023-04-18T02:49:19.485Z,1.00
2023-04-18T02:51:46.693Z,1.00
2023-04-18T02:54:13.905Z,1.00
2023-04-18T02:56:54.148Z,1.00
2023-04-18T02:59:25.057Z,1.00
2023-04-18T03:02:11.014Z,1.00
2023-04-18T03:04:43.894Z,1.00
2023-04-18T03:07:10.862Z,1.00
2023-04-18T03:09:39.027Z,1.00
2023-04-18T03:12:15.359Z,15.40
2023-04-18T03:14:44.323Z,1.20
2023-04-18T03:17:12.748Z,2.30
2023-04-18T03:19:42.623Z,3.70
2023-04-18T03:22:14.141Z,5.30
2023-04-18T03:24:47.844Z,9.60
2023-04-18T03:27:15.961Z,13.10
2023-04-18T03:29:44.729Z,16.80
2023-04-18T03:32:12.550Z,19.70
2023-04-18T03:34:39.236Z,25.60
2023-04-18T03:37:07.882Z,31.80
2023-04-18T03:39:40.628Z,39.30
2023-04-18T03:42:07.582Z,44.90
2023-04-18T03:44:35.078Z,49.50
2023-04-18T03:47:03.531Z,55.30
2023-04-18T03:49:32.165Z,61.40
2023-04-18T03:51:58.897Z,64.10
2023-04-18T03:54:25.650Z,70.50
2023-04-18T03:56:52.380Z,77.10
2023-04-18T03:59:19.377Z,86.80
2023-04-18T04:01:49.571Z,92.80
2023-04-18T04:04:18.088Z,97.90
2023-04-18T04:06:45.483Z,99.90
2023-04-18T04:09:12.221Z,99.90
2023-04-18T04:11:39.744Z,99.90
2023-04-18T04:14:09.061Z,99.90
2023-04-18T04:16:41.398Z,99.90
2023-04-18T04:19:10.533Z,99.90
2023-04-18T04:21:43.729Z,99.90
2023-04-18T04:24:15.036Z,99.90
2023-04-18T04:26:46.699Z,99.90
2023-04-18T04:29:18.948Z,99.90
2023-04-18T04:31:47.423Z,99.90
2023-04-18T04:34:21.558Z,99.90
2023-04-18T04:36:48.671Z,99.90
2023-04-18T04:39:15.399Z,99.90
2023-04-18T04:41:54.094Z,99.90
2023-04-18T04:44:26.794Z,99.90
2023-04-18T04:46:54.423Z,99.90
2023-04-18T04:49:31.054Z,99.90
2023-04-18T04:51:58.686Z,99.90
2023-04-18T04:54:27.688Z,99.90
2023-04-18T04:56:55.020Z,99.90
2023-04-18T04:59:21.712Z,99.90
2023-04-18T05:01:49.305Z,99.90
2023-04-18T05:04:17.093Z,99.90
2023-04-18T05:06:44.756Z,99.90
2023-04-18T05:09:11.593Z,99.90
2023-04-18T05:11:38.273Z,99.90
2023-04-18T05:14:04.909Z,99.90
2023-04-18T05:16:31.718Z,99.90
2023-04-18T05:18:58.405Z,99.90
2023-04-18T05:21:26.045Z,99.90
2023-04-18T05:23:53.008Z,99.90
2023-04-18T05:26:19.803Z,99.90
2023-04-18T05:28:46.548Z,99.90
2023-04-18T05:31:13.581Z,99.90
2023-04-18T05:33:40.423Z,99.90
2023-04-18T05:36:07.588Z,99.90
2023-04-18T05:38:34.354Z,99.90
2023-04-18T05:41:02.926Z,99.90
2023-04-18T05:43:29.562Z,99.90
2023-04-18T05:45:57.741Z,99.90
2023-04-18T05:48:25.272Z,99.90
2023-04-18T05:50:52.033Z,99.90
2023-04-18T05:53:18.679Z,99.90
2023-04-18T05:55:46.523Z,99.90
2023-04-18T05:58:13.209Z,99.90
2023-04-18T06:00:39.845Z,99.90
2023-04-18T06:03:08.549Z,99.90
2023-04-18T06:05:36.989Z,99.90
2023-04-18T06:08:03.817Z,99.90
2023-04-18T06:10:30.599Z,99.90
2023-04-18T06:12:57.226Z,99.90
2023-04-18T06:15:24.111Z,99.90
2023-04-18T06:17:51.154Z,99.90
2023-04-18T06:20:17.970Z,99.90
2023-04-18T06:22:44.621Z,99.90
2023-04-18T06:25:11.293Z,99.90
2023-04-18T06:27:38.375Z,99.90
2023-04-18T06:30:07.083Z,99.90
2023-04-18T06:32:34.344Z,99.90
2023-04-18T06:35:02.155Z,99.90
2023-04-18T06:37:29.307Z,99.90
2023-04-18T06:39:56.103Z,99.90
2023-04-18T06:42:22.989Z,99.90
2023-04-18T06:44:50.114Z,99.90
2023-04-18T06:47:16.913Z,99.90
2023-04-18T06:49:43.556Z,99.90
2023-04-18T06:52:10.212Z,99.90
2023-04-18T06:54:36.845Z,99.90
2023-04-18T06:57:03.775Z,99.90
2023-04-18T06:59:30.651Z,99.90
2023-04-18T07:01:57.354Z,99.90
2023-04-18T07:04:24.246Z,99.90
2023-04-18T07:06:52.103Z,99.90
2023-04-18T07:09:18.950Z,99.90
2023-04-18T07:11:45.753Z,99.90
2023-04-18T07:14:12.775Z,99.90
2023-04-18T07:16:39.675Z,99.90
2023-04-18T07:19:06.735Z,99.90
2023-04-18T07:21:33.543Z,99.90
2023-04-18T07:24:00.269Z,99.90
2023-04-18T07:26:27.752Z,99.90
2023-04-18T07:28:54.446Z,99.90
2023-04-18T07:31:21.117Z,99.90
2023-04-18T07:33:47.838Z,99.90
2023-04-18T07:36:14.578Z,99.90
2023-04-18T07:38:41.391Z,99.90
2023-04-18T07:41:08.020Z,99.90
2023-04-18T07:43:34.802Z,99.90
2023-04-18T07:46:02.248Z,99.90
2023-04-18T07:48:28.898Z,99.90
2023-04-18T07:50:55.627Z,99.90
2023-04-18T07:53:22.396Z,99.90
2023-04-18T07:55:49.697Z,99.90
2023-04-18T07:58:16.381Z,99.90
2023-04-18T08:00:44.745Z,99.90
2023-04-18T08:03:12.853Z,99.90
2023-04-18T08:05:41.312Z,99.90
2023-04-18T08:08:09.925Z,99.90
2023-04-18T08:10:36.883Z,99.00
2023-04-18T08:13:04.080Z,94.80
2023-04-18T08:15:32.496Z,84.10
2023-04-18T08:18:00.854Z,66.70
2023-04-18T08:20:28.020Z,68.10
2023-04-18T08:23:05.062Z,65.00
2023-04-18T08:25:33.997Z,70.50
2023-04-18T08:28:00.704Z,59.10
2023-04-18T08:30:30.760Z,65.00
2023-04-18T08:32:57.668Z,59.80
2023-04-18T08:35:24.384Z,53.10
2023-04-18T08:37:51.054Z,54.80
2023-04-18T08:40:18.569Z,46.80
2023-04-18T08:42:45.509Z,44.20
2023-04-18T08:45:15.337Z,42.00
2023-04-18T08:47:42.688Z,30.60
2023-04-18T08:50:10.411Z,29.70
2023-04-18T08:52:41.317Z,25.10
2023-04-18T08:55:09.374Z,10.30
2023-04-18T08:57:36.180Z,14.60
2023-04-18T09:00:09.087Z,8.50
2023-04-18T09:02:43.646Z,4.00
2023-04-18T09:05:16.457Z,5.10
2023-04-18T09:07:43.215Z,3.00
2023-04-18T09:10:10.442Z,1.00
2023-04-18T09:12:50.608Z,1.00
2023-04-18T09:15:23.229Z,1.00
2023-04-18T09:17:56.243Z,1.00
2023-04-18T09:20:30.768Z,1.00
2023-04-18T09:22:57.802Z,1.00
2023-04-18T09:25:34.431Z,1.00
2023-04-18T09:28:02.530Z,1.00
2023-04-18T09:30:36.664Z,1.00
2023-04-18T09:33:05.346Z,1.00
2023-04-18T09:35:32.126Z,1.00
2023-04-18T09:37:58.778Z,1.00
2023-04-18T09:40:25.812Z,1.00
2023-04-18T09:42:56.975Z,1.00
2023-04-18T09:45:24.882Z,1.00
2023-04-18T09:47:52.450Z,1.00
2023-04-18T09:50:20.798Z,1.00
2023-04-18T09:52:48.302Z,1.00
2023-04-18T09:55:17.446Z,1.00
2023-04-18T09:57:48.681Z,1.00
2023-04-18T10:00:26.680Z,1.00
2023-04-18T10:03:02.562Z,1.00
2023-04-18T10:05:33.678Z,1.00
2023-04-18T10:08:01.020Z,1.00
2023-04-18T10:10:27.924Z,1.00
2023-04-18T10:12:56.501Z,1.00
2023-04-18T10:15:25.307Z,1.00
2023-04-18T10:18:04.264Z,1.00
2023-04-18T10:20:34.554Z,1.00
2023-04-18T10:23:40.533Z,1.00
2023-04-18T10:26:08.757Z,1.00
2023-04-18T10:28:57.092Z,1.00
2023-04-18T10:31:28.957Z,1.00
2023-04-18T10:36:28.539Z,1.00
2023-04-18T10:39:00.719Z,1.00
2023-04-18T10:41:29.658Z,1.00
2023-04-18T10:44:18.196Z,1.00
2023-04-18T10:46:48.089Z,1.00
2023-04-18T10:49:16.830Z,1.00
2023-04-18T10:51:56.058Z,1.00
2023-04-18T10:54:25.712Z,1.00
2023-04-18T10:56:56.650Z,1.00
2023-04-18T10:59:25.058Z,1.00
2023-04-18T11:02:05.055Z,1.00
2023-04-18T11:04:31.916Z,1.00
2023-04-18T11:06:58.747Z,1.00
2023-04-18T11:09:25.747Z,1.00
2023-04-18T11:12:07.051Z,1.00
2023-04-18T11:14:45.621Z,1.00
2023-04-18T11:17:23.584Z,1.00
2023-04-18T11:19:51.751Z,1.00
2023-04-18T11:22:19.017Z,1.00
2023-04-18T11:24:45.761Z,1.00
2023-04-18T11:27:12.750Z,1.00
2023-04-18T11:29:39.449Z,1.00
2023-04-18T11:32:07.703Z,1.00
2023-04-18T11:34:35.603Z,1.00
2023-04-18T11:37:06.445Z,1.00
2023-04-18T11:39:42.852Z,1.00
2023-04-18T11:42:09.821Z,1.00
2023-04-18T11:44:39.684Z,1.00
2023-04-18T11:47:22.872Z,1.00
2023-04-18T11:50:02.051Z,1.00
2023-04-18T11:52:31.052Z,1.00
2023-04-18T11:55:18.257Z,1.00
2023-04-18T11:57:53.839Z,1.00
2023-04-18T12:00:42.094Z,1.00
2023-04-18T12:03:16.023Z,1.00
2023-04-18T12:05:43.170Z,1.00
2023-04-18T12:08:13.164Z,1.00
2023-04-18T12:10:47.495Z,1.00
2023-04-18T12:13:14.532Z,1.00
2023-04-18T12:15:44.307Z,1.00
2023-04-18T12:18:12.469Z,1.00
2023-04-18T12:20:45.807Z,1.00
2023-04-18T12:23:35.801Z,1.00
2023-04-18T12:26:04.309Z,1.00
2023-04-18T12:28:31.768Z,1.00
2023-04-18T12:30:58.980Z,1.00
2023-04-18T12:33:26.774Z,1.00
2023-04-18T12:35:53.963Z,1.00
2023-04-18T12:38:24.559Z,1.00
2023-04-18T12:40:52.011Z,1.00
2023-04-18T12:43:19.729Z,1.00
2023-04-18T12:45:47.052Z,1.00
2023-04-18T12:48:13.962Z,1.00
2023-04-18T12:50:40.755Z,1.00
2023-04-18T12:53:07.828Z,1.00
2023-04-18T12:55:34.590Z,1.00
2023-04-18T12:58:02.203Z,1.00
2023-04-18T13:00:31.432Z,1.00
2023-04-18T13:02:58.985Z,1.00
2023-04-18T13:05:29.154Z,1.00
2023-04-18T13:08:08.704Z,1.00
2023-04-18T13:10:39.826Z,1.00
2023-04-18T13:13:06.661Z,1.00
2023-04-18T13:15:33.403Z,1.00
2023-04-18T13:18:04.638Z,1.00
2023-04-18T13:20:32.498Z,1.00
2023-04-18T13:22:59.206Z,1.00
2023-04-18T13:25:26.550Z,1.00
2023-04-18T13:27:53.371Z,1.00
2023-04-18T13:30:20.049Z,1.00
2023-04-18T13:32:47.086Z,1.00
2023-04-18T13:35:13.961Z,1.00
2023-04-18T13:37:40.845Z,1.00
2023-04-18T13:40:08.256Z,1.00
2023-04-18T13:42:36.845Z,1.00
2023-04-18T13:45:04.078Z,1.00
2023-04-18T13:47:30.852Z,1.00
2023-04-18T13:49:57.828Z,1.00
2023-04-18T13:52:25.349Z,1.00
2023-04-18T13:54:52.073Z,1.00
2023-04-18T13:57:18.792Z,1.00
2023-04-18T13:59:45.540Z,1.00
2023-04-18T14:02:12.454Z,1.00
2023-04-18T14:04:39.716Z,1.00
2023-04-18T14:07:07.902Z,1.00
2023-04-18T14:09:34.883Z,1.00
2023-04-18T14:12:02.732Z,1.00
2023-04-18T14:14:29.566Z,1.00
2023-04-18T14:16:56.341Z,1.00
2023-04-18T14:19:23.101Z,1.00
2023-04-18T14:21:49.734Z,1.00
2023-04-18T14:24:16.525Z,1.00
2023-04-18T14:26:43.931Z,1.00
2023-04-18T14:29:11.177Z,1.00
2023-04-18T14:31:38.173Z,1.00
2023-04-18T14:34:05.578Z,1.00
2023-04-18T14:36:32.663Z,1.00
2023-04-18T14:38:59.392Z,1.00
2023-04-18T14:41:26.192Z,1.00
2023-04-18T14:43:53.006Z,1.00
2023-04-18T14:46:21.147Z,1.00
2023-04-18T14:48:47.951Z,1.00
2023-04-18T14:51:16.249Z,1.00
2023-04-18T14:53:43.379Z,1.00
2023-04-18T14:56:10.172Z,1.00
2023-04-18T14:58:36.839Z,1.00
2023-04-18T15:01:04.340Z,1.00
2023-04-18T15:03:31.360Z,1.00
2023-04-18T15:05:58.217Z,1.00
2023-04-18T15:08:25.168Z,1.00
2023-04-18T15:10:51.834Z,1.00
2023-04-18T15:13:18.557Z,1.00
2023-04-18T15:15:51.968Z,1.00
2023-04-18T15:18:18.639Z,1.00
2023-04-18T15:20:45.566Z,1.00
2023-04-18T15:23:14.260Z,1.00
2023-04-18T15:25:41.695Z,1.00
2023-04-18T15:28:08.545Z,1.00
2023-04-18T15:30:35.265Z,1.00
2023-04-18T15:33:05.167Z,1.00
2023-04-18T15:35:31.922Z,1.00
2023-04-18T15:37:58.593Z,1.00
2023-04-18T15:40:25.276Z,1.00
2023-04-18T15:42:54.085Z,1.00
2023-04-18T15:45:21.798Z,1.00
2023-04-18T15:47:48.538Z,1.00
2023-04-18T15:50:16.211Z,1.00
2023-04-18T15:52:44.050Z,1.00
2023-04-18T15:55:13.006Z,1.00
2023-04-18T15:57:41.685Z,1.00
2023-04-18T16:00:17.392Z,1.00
2023-04-18T16:02:45.843Z,1.00
2023-04-18T16:05:13.407Z,1.00
2023-04-18T16:07:41.337Z,1.00
2023-04-18T16:10:12.690Z,1.00
2023-04-18T16:12:40.233Z,1.00
2023-04-18T16:15:08.961Z,1.00
2023-04-18T16:17:36.965Z,1.00
2023-04-18T16:20:05.844Z,1.00
2023-04-18T16:22:32.534Z,1.00
2023-04-18T16:24:59.256Z,1.00
2023-04-18T16:27:26.109Z,1.00
2023-04-18T16:29:53.698Z,1.00
2023-04-18T16:32:20.505Z,1.00
2023-04-18T16:34:47.252Z,1.00
2023-04-18T16:37:13.931Z,1.00
2023-04-18T16:39:40.633Z,1.00
2023-04-18T16:42:07.284Z,1.00
2023-04-18T16:44:33.987Z,1.00
2023-04-18T16:47:00.833Z,1.00
2023-04-18T16:49:27.713Z,1.00
2023-04-18T16:51:56.349Z,1.00
2023-04-18T16:54:23.057Z,1.00
2023-04-18T16:56:49.688Z,1.00
2023-04-18T16:59:16.379Z,1.00
2023-04-18T17:01:43.040Z,1.00
2023-04-18T17:04:09.835Z,1.00
2023-04-18T17:06:36.665Z,1.00
2023-04-18T17:09:06.153Z,1.00
2023-04-18T17:11:38.869Z,1.00
2023-04-18T17:14:07.629Z,1.00
2023-04-18T17:16:36.952Z,1.00
2023-04-18T17:19:03.822Z,1.00
2023-04-18T17:21:31.730Z,1.00
2023-04-18T17:24:02.212Z,1.00
2023-04-18T17:26:31.657Z,1.00
2023-04-18T17:28:59.300Z,1.00
2023-04-18T17:31:26.054Z,1.00
2023-04-18T17:33:54.368Z,1.00
2023-04-18T17:36:21.051Z,1.00
2023-04-18T17:38:50.684Z,1.00
2023-04-18T17:41:19.990Z,1.00
2023-04-18T17:43:47.266Z,1.00
2023-04-18T17:46:14.558Z,1.00
2023-04-18T17:48:41.441Z,1.00
2023-04-18T17:51:08.205Z,1.00
2023-04-18T17:53:34.913Z,1.00
2023-04-18T17:56:03.667Z,1.00
2023-04-18T17:58:30.784Z,1.00
2023-04-18T18:00:57.715Z,1.00
2023-04-18T18:03:24.705Z,1.00
2023-04-18T18:05:51.811Z,1.00
2023-04-18T18:08:18.552Z,1.00
2023-04-18T18:10:46.987Z,1.00
2023-04-18T18:13:13.826Z,1.00
2023-04-18T18:15:40.614Z,1.00
2023-04-18T18:18:07.381Z,1.00
2023-04-18T18:20:34.126Z,1.00
2023-04-18T18:23:01.618Z,1.00
2023-04-18T18:25:28.649Z,1.00
2023-04-18T18:27:55.413Z,1.00
2023-04-18T18:30:22.136Z,1.00
2023-04-18T18:32:49.468Z,1.00
2023-04-18T18:35:16.268Z,1.00
2023-04-18T18:37:42.951Z,1.00
2023-04-18T18:40:10.057Z,1.00
2023-04-18T18:42:38.434Z,1.00
2023-04-18T18:45:05.917Z,1.00
2023-04-18T18:47:34.149Z,1.00
2023-04-18T18:50:01.238Z,1.00
2023-04-18T18:52:31.025Z,1.00
2023-04-18T18:54:57.840Z,1.00
2023-04-18T18:57:24.988Z,1.00
2023-04-18T18:59:52.495Z,1.00
2023-04-18T19:02:20.827Z,1.00
2023-04-18T19:04:47.826Z,1.00
2023-04-18T19:07:14.658Z,1.00
2023-04-18T19:09:41.298Z,1.00
2023-04-18T19:12:08.226Z,1.00
2023-04-18T19:14:34.980Z,1.00
2023-04-18T19:17:02.176Z,1.00
2023-04-18T19:19:28.979Z,1.00
2023-04-18T19:21:55.639Z,1.00
2023-04-18T19:24:22.341Z,1.00
2023-04-18T19:26:49.024Z,1.00
2023-04-18T19:29:16.509Z,1.00
2023-04-18T19:31:43.802Z,1.00
2023-04-18T19:34:12.497Z,1.00
2023-04-18T19:36:39.199Z,1.00
2023-04-18T19:39:05.857Z,1.00
2023-04-18T19:41:33.039Z,1.00
2023-04-18T19:44:00.546Z,1.00
2023-04-18T19:46:28.179Z,1.00
2023-04-18T19:48:54.860Z,1.00
2023-04-18T19:51:21.588Z,1.00
2023-04-18T19:53:48.311Z,1.00
2023-04-18T19:56:15.050Z,1.00
2023-04-18T19:58:47.518Z,1.00
2023-04-18T20:01:15.540Z,1.00
2023-04-18T20:03:42.861Z,1.00
2023-04-18T20:06:10.033Z,1.00
2023-04-18T20:08:41.321Z,1.00
2023-04-18T20:11:09.736Z,1.00
2023-04-18T20:13:37.379Z,1.00
2023-04-18T20:16:08.732Z,1.00
2023-04-18T20:18:37.873Z,1.00
2023-04-18T20:21:07.113Z,1.00
2023-04-18T20:23:37.355Z,1.00
2023-04-18T20:26:04.398Z,1.00
2023-04-18T20:28:31.782Z,1.00
2023-04-18T20:30:58.812Z,1.00
2023-04-18T20:33:25.747Z,1.00
2023-04-18T20:35:54.572Z,1.00
2023-04-18T20:38:25.787Z,1.00
2023-04-18T20:40:53.943Z,1.00
2023-04-18T20:43:20.690Z,1.00
2023-04-18T20:45:51.412Z,1.00
2023-04-18T20:48:18.688Z,1.00
2023-04-18T20:50:51.049Z,1.00
2023-04-18T20:53:21.572Z,1.00
2023-04-18T20:55:48.861Z,1.00
2023-04-18T20:58:15.797Z,1.00
2023-04-18T21:00:43.672Z,1.00
2023-04-18T21:03:13.132Z,1.00
2023-04-18T21:05:39.905Z,1.00
2023-04-18T21:08:06.664Z,1.00
2023-04-18T21:10:33.435Z,1.00
2023-04-18T21:13:00.118Z,1.00
2023-04-18T21:15:27.803Z,1.00
2023-04-18T21:17:55.636Z,1.00
2023-04-18T21:20:22.380Z,1.00
2023-04-18T21:22:49.034Z,1.00
2023-04-18T21:25:16.448Z,1.00
2023-04-18T21:27:43.129Z,1.00
2023-04-18T21:30:09.962Z,1.00
2023-04-18T21:32:37.224Z,1.00
2023-04-18T21:35:04.038Z,1.00
2023-04-18T21:37:31.510Z,1.00
2023-04-18T21:39:58.177Z,1.00
2023-04-18T21:42:24.911Z,1.00
2023-04-18T21:44:51.573Z,1.00
2023-04-18T21:47:18.218Z,1.00
2023-04-18T21:49:44.876Z,1.00
2023-04-18T21:52:11.628Z,1.00
2023-04-18T21:54:39.896Z,1.00
2023-04-18T21:57:06.641Z,1.00
2023-04-18T21:59:33.339Z,1.00
2023-04-18T22:02:00.132Z,1.00
2023-04-18T22:04:27.860Z,1.00
2023-04-18T22:06:54.812Z,1.00
2023-04-18T22:09:22.420Z,1.00
2023-04-18T22:11:51.564Z,1.00
2023-04-18T22:14:19.939Z,1.00
2023-04-18T22:16:46.666Z,1.00
2023-04-18T22:19:14.521Z,1.00
2023-04-18T22:21:41.205Z,1.00
2023-04-18T22:24:08.640Z,1.00
2023-04-18T22:26:35.500Z,1.00
2023-04-18T22:29:02.711Z,1.00
2023-04-18T22:31:29.721Z,1.00
2023-04-18T22:33:56.451Z,1.00
2023-04-18T22:36:23.120Z,1.00
2023-04-18T22:38:49.781Z,1.00
2023-04-18T22:41:16.458Z,1.00
2023-04-18T22:43:43.709Z,1.00
2023-04-18T22:46:10.745Z,1.00
2023-04-18T22:48:38.426Z,1.00
2023-04-18T22:51:05.332Z,1.00
2023-04-18T22:53:32.129Z,1.00
2023-04-18T22:55:58.885Z,1.00
2023-04-18T22:58:25.680Z,1.00
2023-04-18T23:00:52.643Z,1.00
2023-04-18T23:03:19.577Z,1.00
2023-04-18T23:05:46.371Z,1.00
2023-04-18T23:08:13.083Z,1.00
2023-04-18T23:10:39.844Z,1.00
2023-04-18T23:13:06.544Z,1.00
2023-04-18T23:15:33.305Z,1.00
2023-04-18T23:18:00.145Z,1.00
2023-04-18T23:20:28.660Z,1.00
2023-04-18T23:22:56.011Z,1.00
2023-04-18T23:25:22.979Z,1.00
2023-04-18T23:27:49.888Z,1.00
2023-04-18T23:30:17.101Z,1.00
2023-04-18T23:32:43.983Z,1.00
2023-04-18T23:35:11.357Z,1.00
2023-04-18T23:37:38.141Z,1.00
2023-04-18T23:40:06.668Z,1.00
2023-04-18T23:42:37.079Z,1.00
2023-04-18T23:45:05.720Z,1.00
2023-04-18T23:47:32.633Z,1.00
2023-04-18T23:49:59.369Z,1.00
2023-04-18T23:52:26.021Z,1.00
2023-04-18T23:54:52.914Z,1.00
2023-04-18T23:57:19.545Z,1.00
2023-04-18T23:59:46.185Z,1.00
